Time;durP1;ratioP1;P1;durP2;ratioP2;P2;SDS_P1;SDS_P2;PMS_P1;PMS_P2;Temp;Humidity;BMP_temperature;BMP_pressure;BME280_temperature;BME280_humidity;BME280_pressure;Samples;Min_cycle;Max_cycle;Signal;HPM_P1;HPM_P2
2021/10/23 00:02:05;;;;;;;13.58;7.08;;;;;;;9.35;54.68;100205.03;1722537;80;23308;-57
2021/10/23 00:04:32;;;;;;;14.73;7.15;;;;;;;9.32;55.00;100204.77;1726312;80;21051;-57
2021/10/23 00:06:58;;;;;;;16.65;7.37;;;;;;;9.31;55.02;100203.09;1697526;82;21141;-57
2021/10/23 00:09:24;;;;;;;9.53;6.75;;;;;;;9.30;54.81;100208.00;1726952;80;21590;-58
2021/10/23 00:11:52;;;;;;;11.28;6.80;;;;;;;9.30;54.39;100204.06;1728102;80;21034;-58
2021/10/23 00:14:19;;;;;;;11.85;6.55;;;;;;;9.31;54.52;100213.59;1715919;82;21904;-57
2021/10/23 00:16:47;;;;;;;12.47;7.55;;;;;;;9.32;53.97;100207.40;1728480;80;21095;-58
2021/10/23 00:19:13;;;;;;;16.62;7.40;;;;;;;9.33;53.79;100197.27;1730752;80;21036;-58
2021/10/23 00:21:40;;;;;;;15.30;6.75;;;;;;;9.35;54.36;100192.72;1732528;80;21747;-58
2021/10/23 00:24:06;;;;;;;18.07;7.58;;;;;;;9.35;55.28;100195.84;1726933;80;21086;-58
2021/10/23 00:26:33;;;;;;;17.75;7.37;;;;;;;9.33;55.34;100199.89;1694567;82;21158;-59
2021/10/23 00:28:59;;;;;;;17.75;7.47;;;;;;;9.29;55.77;100197.13;1691076;82;21666;-59
2021/10/23 00:31:26;;;;;;;17.95;7.42;;;;;;;9.27;57.04;100198.56;1696857;82;21067;-58
2021/10/23 00:33:52;;;;;;;11.30;6.28;;;;;;;9.32;57.73;100197.38;1728809;80;21616;-58
2021/10/23 00:36:18;;;;;;;12.53;6.37;;;;;;;9.38;57.60;100192.48;1732149;80;21003;-58
2021/10/23 00:38:45;;;;;;;13.30;6.55;;;;;;;9.44;57.26;100183.28;1695116;82;21525;-58
2021/10/23 00:41:12;;;;;;;24.87;7.92;;;;;;;9.50;56.93;100194.62;1675275;82;21066;-57
2021/10/23 00:43:41;;;;;;;13.35;7.03;;;;;;;9.52;56.73;100201.08;1693556;82;21098;-57
2021/10/23 00:46:07;;;;;;;15.72;7.62;;;;;;;9.49;56.74;100187.70;1672024;83;21760;-58
2021/10/23 00:48:35;;;;;;;11.18;6.37;;;;;;;9.44;56.72;100198.55;1671441;82;22083;-57
2021/10/23 00:51:02;;;;;;;11.73;6.97;;;;;;;9.38;56.54;100195.57;1694929;83;22715;-57
2021/10/23 00:53:30;;;;;;;12.70;7.17;;;;;;;9.29;56.30;100198.44;1695937;82;21064;-57
2021/10/23 00:55:56;;;;;;;9.48;6.25;;;;;;;9.20;56.20;100204.42;1693144;82;21055;-58
2021/10/23 00:58:22;;;;;;;11.85;6.30;;;;;;;9.08;56.42;100214.08;1700194;82;21528;-60
2021/10/23 01:00:49;;;;;;;11.25;6.53;;;;;;;9.01;56.73;100205.83;1698493;83;21075;-58
2021/10/23 01:03:15;;;;;;;13.70;6.87;;;;;;;9.00;56.64;100202.01;1690843;82;23363;-59
2021/10/23 01:05:42;;;;;;;14.03;7.20;;;;;;;9.00;56.68;100204.15;1694715;82;21071;-57
2021/10/23 01:08:10;;;;;;;11.53;7.00;;;;;;;8.98;56.79;100199.95;1697709;82;21051;-58
2021/10/23 01:10:37;;;;;;;13.30;7.55;;;;;;;8.91;56.92;100208.80;1664124;82;21057;-58
2021/10/23 01:13:04;;;;;;;11.88;6.47;;;;;;;8.84;57.11;100215.44;1697047;82;21483;-58
2021/10/23 01:15:33;;;;;;;11.33;6.53;;;;;;;8.77;57.30;100208.99;1691717;82;21035;-58
2021/10/23 01:18:02;;;;;;;11.55;6.90;;;;;;;8.77;57.21;100216.37;1681680;83;21099;-58
2021/10/23 01:20:29;;;;;;;15.98;7.37;;;;;;;8.77;57.03;100216.86;1682828;82;21108;-57
2021/10/23 01:22:56;;;;;;;13.62;7.95;;;;;;;8.78;56.85;100218.55;1709103;82;21066;-58
2021/10/23 01:25:24;;;;;;;19.40;7.42;;;;;;;8.79;56.58;100217.58;1673324;82;21080;-57
2021/10/23 01:27:56;;;;;;;14.00;8.15;;;;;;;8.78;56.44;100215.44;1698322;83;21491;-58
2021/10/23 01:30:23;;;;;;;13.32;7.42;;;;;;;8.81;56.37;100220.46;1708139;82;20991;-58
2021/10/23 01:32:51;;;;;;;13.18;7.30;;;;;;;8.80;56.56;100216.64;1704086;82;21022;-56
2021/10/23 01:35:17;;;;;;;10.93;6.95;;;;;;;8.79;56.78;100224.97;1705707;82;21081;-57
2021/10/23 01:37:46;;;;;;;11.85;6.42;;;;;;;8.76;56.83;100216.04;1711929;82;21006;-57
2021/10/23 01:40:25;;;;;;;13.48;6.05;;;;;;;8.71;57.06;100221.62;1695295;82;22407;-57
2021/10/23 01:42:52;;;;;;;13.08;7.12;;;;;;;8.66;57.13;100217.20;1704633;82;21089;-57
2021/10/23 01:45:18;;;;;;;10.32;6.67;;;;;;;8.61;56.83;100227.20;1702053;82;21010;-57
2021/10/23 01:47:46;;;;;;;13.40;6.70;;;;;;;8.55;56.76;100225.02;1702909;82;21684;-57
2021/10/23 01:50:22;;;;;;;14.70;5.85;;;;;;;8.50;56.60;100221.90;1707681;82;21047;-57
2021/10/23 01:52:51;;;;;;;10.80;5.75;;;;;;;8.45;56.57;100213.54;1681920;83;21059;-57
2021/10/23 01:55:17;;;;;;;11.20;5.78;;;;;;;8.42;56.54;100217.66;1687137;83;21080;-56
2021/10/23 01:57:45;;;;;;;17.52;5.95;;;;;;;8.37;56.46;100212.30;1707871;82;21116;-59
2021/10/23 02:00:13;;;;;;;10.32;6.08;;;;;;;8.35;56.22;100212.89;1709254;82;21094;-57
2021/10/23 02:02:41;;;;;;;17.50;7.33;;;;;;;8.31;56.18;100215.36;1709603;82;21030;-57
2021/10/23 02:05:08;;;;;;;13.40;6.83;;;;;;;8.26;56.11;100207.48;1710050;82;21145;-57
2021/10/23 02:07:35;;;;;;;10.05;6.20;;;;;;;8.23;56.11;100214.25;1701905;82;21669;-57
2021/10/23 02:10:05;;;;;;;11.97;6.78;;;;;;;8.20;56.08;100216.61;1715718;82;21062;-57
2021/10/23 02:12:31;;;;;;;11.12;6.55;;;;;;;8.14;56.19;100217.08;1707411;83;21077;-57
2021/10/23 02:14:58;;;;;;;11.70;6.33;;;;;;;8.11;56.30;100211.56;1691095;83;21053;-57
2021/10/23 02:17:25;;;;;;;15.28;6.80;;;;;;;8.08;56.23;100216.20;1706380;82;21113;-57
2021/10/23 02:19:53;;;;;;;11.33;6.58;;;;;;;8.05;56.21;100216.41;1745441;80;21113;-57
2021/10/23 02:22:19;;;;;;;13.43;6.78;;;;;;;8.03;56.34;100215.69;1725799;80;21107;-57
2021/10/23 02:24:45;;;;;;;11.08;7.22;;;;;;;8.03;56.28;100222.24;1733784;80;21011;-57
2021/10/23 02:27:12;;;;;;;11.68;6.70;;;;;;;8.03;56.24;100220.45;1676036;82;21078;-57
2021/10/23 02:29:39;;;;;;;11.68;6.67;;;;;;;8.04;56.16;100222.62;1712424;80;21094;-57
2021/10/23 02:32:06;;;;;;;12.78;6.90;;;;;;;8.04;56.03;100227.37;1726615;82;21643;-57
2021/10/23 02:34:33;;;;;;;13.50;6.83;;;;;;;8.03;55.99;100234.03;1734279;80;21485;-57
2021/10/23 02:36:59;;;;;;;12.47;6.47;;;;;;;7.99;56.02;100234.25;1743095;80;21090;-57
2021/10/23 02:39:27;;;;;;;12.53;6.50;;;;;;;7.98;56.08;100235.67;1730765;80;21540;-57
2021/10/23 02:41:53;;;;;;;11.25;6.08;;;;;;;7.95;56.23;100233.27;1702628;80;21076;-57
2021/10/23 02:44:20;;;;;;;10.53;6.17;;;;;;;7.92;56.31;100231.71;1743028;80;21164;-57
2021/10/23 02:46:46;;;;;;;10.28;6.47;;;;;;;7.90;56.41;100229.69;1739169;80;21092;-58
2021/10/23 02:49:13;;;;;;;9.30;5.42;;;;;;;7.89;56.39;100234.55;1720153;80;21546;-57
2021/10/23 02:51:39;;;;;;;16.02;7.53;;;;;;;7.85;56.48;100237.03;1701342;82;21149;-57
2021/10/23 02:54:07;;;;;;;10.15;5.75;;;;;;;7.86;56.53;100233.94;1699212;82;21148;-57
2021/10/23 02:56:35;;;;;;;16.48;6.33;;;;;;;7.83;56.43;100230.22;1693806;82;21324;-56
2021/10/23 02:59:01;;;;;;;9.93;5.97;;;;;;;7.82;56.37;100233.31;1733861;80;21369;-56
2021/10/23 03:01:28;;;;;;;10.35;6.25;;;;;;;7.79;56.35;100230.91;1734889;80;21083;-57
2021/10/23 03:03:55;;;;;;;14.30;5.85;;;;;;;7.77;56.42;100235.42;1722369;82;21053;-57
2021/10/23 03:06:22;;;;;;;10.53;4.97;;;;;;;7.74;56.45;100232.53;1738205;80;21133;-57
2021/10/23 03:08:48;;;;;;;8.80;5.03;;;;;;;7.74;56.49;100231.70;1698586;82;21661;-57
2021/10/23 03:11:15;;;;;;;13.30;6.05;;;;;;;7.72;56.48;100227.06;1720072;80;22020;-57
2021/10/23 03:13:42;;;;;;;9.78;5.62;;;;;;;7.72;56.53;100235.74;1738261;80;21012;-57
2021/10/23 03:16:10;;;;;;;10.60;5.55;;;;;;;7.71;56.53;100234.06;1739849;80;21090;-57
2021/10/23 03:18:37;;;;;;;11.10;5.42;;;;;;;7.69;56.61;100232.51;1747162;80;21124;-57
2021/10/23 03:21:04;;;;;;;12.25;5.80;;;;;;;7.66;56.71;100231.41;1746969;80;21074;-57
2021/10/23 03:23:31;;;;;;;9.83;5.78;;;;;;;7.64;56.55;100227.59;1729828;81;21054;-57
2021/10/23 03:25:57;;;;;;;13.22;6.55;;;;;;;7.63;56.54;100233.30;1727102;80;21540;-57
2021/10/23 03:28:24;;;;;;;11.08;5.53;;;;;;;7.61;56.49;100234.34;1747873;80;21062;-57
2021/10/23 03:30:50;;;;;;;16.87;6.75;;;;;;;7.61;56.51;100223.39;1746221;80;21074;-57
2021/10/23 03:33:17;;;;;;;11.15;6.22;;;;;;;7.62;56.42;100226.86;1755096;79;21030;-57
2021/10/23 03:35:44;;;;;;;10.32;5.50;;;;;;;7.62;56.54;100228.17;1732308;80;22426;-57
2021/10/23 03:38:11;;;;;;;12.00;6.70;;;;;;;7.59;56.62;100237.06;1705257;82;21109;-58
2021/10/23 03:40:37;;;;;;;10.80;6.67;;;;;;;7.58;56.66;100235.41;1713916;82;21007;-57
2021/10/23 03:43:04;;;;;;;13.22;7.10;;;;;;;7.58;56.59;100234.55;1708981;82;21595;-57
2021/10/23 03:45:31;;;;;;;11.83;6.10;;;;;;;7.54;56.47;100231.31;1684537;82;21072;-57
2021/10/23 03:47:57;;;;;;;14.20;6.75;;;;;;;7.51;56.64;100236.77;1687006;82;21699;-57
2021/10/23 03:50:24;;;;;;;10.55;5.87;;;;;;;7.51;56.53;100236.77;1682196;82;21092;-57
2021/10/23 03:52:51;;;;;;;12.20;6.53;;;;;;;7.50;56.58;100232.94;1664980;82;21099;-57
2021/10/23 03:55:17;;;;;;;13.98;6.92;;;;;;;7.51;56.45;100242.48;1687219;82;21215;-57
2021/10/23 03:57:44;;;;;;;15.13;6.65;;;;;;;7.50;56.38;100236.41;1691290;82;21114;-57
2021/10/23 04:00:12;;;;;;;12.05;6.95;;;;;;;7.51;56.33;100239.86;1683096;83;22276;-57
2021/10/23 04:02:38;;;;;;;13.75;5.87;;;;;;;7.51;56.32;100245.09;1662687;84;21603;-58
2021/10/23 04:05:07;;;;;;;12.45;7.15;;;;;;;7.50;56.24;100254.74;1692263;82;21108;-56
2021/10/23 04:07:34;;;;;;;10.58;6.20;;;;;;;7.49;56.30;100248.30;1711747;82;21159;-57
2021/10/23 04:10:04;;;;;;;12.00;6.15;;;;;;;7.48;56.21;100244.86;1709859;82;21042;-57
2021/10/23 04:12:32;;;;;;;12.37;6.20;;;;;;;7.50;56.08;100256.50;1686155;82;21078;-57
2021/10/23 04:15:03;;;;;;;11.73;5.83;;;;;;;7.47;56.06;100252.33;1656693;83;21540;-57
2021/10/23 04:17:28;;;;;;;13.98;5.80;;;;;;;7.46;55.99;100245.41;1682170;82;21372;-57
2021/10/23 04:19:55;;;;;;;12.00;6.47;;;;;;;7.45;55.97;100243.75;1690963;82;21122;-57
2021/10/23 04:22:21;;;;;;;16.52;6.40;;;;;;;7.43;55.92;100245.61;1685127;83;21097;-57
2021/10/23 04:24:51;;;;;;;10.75;5.75;;;;;;;7.43;55.92;100245.61;1703743;82;21689;-58
2021/10/23 04:27:19;;;;;;;9.80;5.30;;;;;;;7.41;55.96;100247.51;1701988;82;21073;-57
2021/10/23 04:29:46;;;;;;;9.78;5.50;;;;;;;7.39;55.96;100253.33;1703810;82;21527;-57
2021/10/23 04:32:13;;;;;;;12.82;6.50;;;;;;;7.39;55.99;100257.25;1705895;82;21044;-57
2021/10/23 04:34:40;;;;;;;9.40;5.12;;;;;;;7.38;55.97;100252.95;1705395;82;22190;-57
2021/10/23 04:37:06;;;;;;;9.48;5.28;;;;;;;7.34;56.02;100260.18;1707337;83;21109;-57
2021/10/23 04:39:34;;;;;;;10.00;5.50;;;;;;;7.34;55.97;100266.72;1709408;82;21078;-57
2021/10/23 04:42:01;;;;;;;9.20;5.37;;;;;;;7.34;55.88;100268.52;1705332;82;21442;-57
2021/10/23 04:44:27;;;;;;;11.43;5.67;;;;;;;7.32;55.90;100269.92;1705418;82;21142;-58
2021/10/23 04:46:55;;;;;;;12.37;5.70;;;;;;;7.32;55.89;100274.33;1703993;81;21157;-57
2021/10/23 04:49:21;;;;;;;23.57;5.78;;;;;;;7.32;55.89;100266.48;1701505;82;21557;-58
2021/10/23 04:51:49;;;;;;;11.20;5.67;;;;;;;7.32;55.81;100262.07;1700756;82;21499;-58
2021/10/23 04:54:16;;;;;;;13.35;6.22;;;;;;;7.33;55.89;100269.44;1685169;84;20997;-57
2021/10/23 04:56:42;;;;;;;13.85;5.72;;;;;;;7.33;55.76;100274.23;1698813;82;21643;-57
2021/10/23 04:59:10;;;;;;;14.83;4.87;;;;;;;7.34;55.64;100287.66;1696989;82;21022;-58
2021/10/23 05:01:37;;;;;;;9.15;5.47;;;;;;;7.35;55.52;100296.38;1709490;82;21010;-58
2021/10/23 05:04:03;;;;;;;8.10;4.83;;;;;;;7.32;55.44;100289.55;1707580;82;20991;-57
2021/10/23 05:06:30;;;;;;;11.78;5.42;;;;;;;7.30;55.43;100292.75;1688041;84;20996;-56
2021/10/23 05:08:58;;;;;;;9.63;5.42;;;;;;;7.28;55.37;100295.09;1689327;82;22036;-57
2021/10/23 05:11:24;;;;;;;10.08;4.58;;;;;;;7.25;55.33;100291.75;1689810;82;20992;-57
2021/10/23 05:13:50;;;;;;;12.68;4.37;;;;;;;7.26;55.39;100291.27;1688852;84;21055;-57
2021/10/23 05:16:17;;;;;;;9.35;4.28;;;;;;;7.28;55.44;100299.02;1667531;82;21834;-58
2021/10/23 05:18:48;;;;;;;10.60;4.60;;;;;;;7.31;55.40;100299.64;1681698;82;21001;-58
2021/10/23 05:21:13;;;;;;;10.98;5.80;;;;;;;7.35;55.33;100303.75;1674014;83;21577;-58
2021/10/23 05:23:40;;;;;;;9.38;4.92;;;;;;;7.37;55.28;100313.64;1686041;82;21106;-58
2021/10/23 05:26:06;;;;;;;10.63;5.00;;;;;;;7.40;55.23;100320.45;1669574;83;21044;-58
2021/10/23 05:28:33;;;;;;;10.65;5.62;;;;;;;7.41;55.23;100311.20;1688262;82;21125;-59
2021/10/23 05:31:01;;;;;;;8.58;4.08;;;;;;;7.44;55.23;100314.89;1694707;83;20983;-58
2021/10/23 05:33:28;;;;;;;15.05;6.00;;;;;;;7.47;54.96;100313.86;1699473;82;22161;-58
2021/10/23 05:35:55;;;;;;;11.12;4.95;;;;;;;7.53;54.74;100312.14;1696092;83;21110;-57
2021/10/23 05:38:21;;;;;;;9.95;4.83;;;;;;;7.58;54.42;100320.52;1701091;83;21008;-57
2021/10/23 05:40:48;;;;;;;8.50;4.33;;;;;;;7.63;54.25;100326.27;1699141;83;21004;-56
2021/10/23 05:43:14;;;;;;;8.68;4.45;;;;;;;7.70;53.84;100324.52;1698113;82;21095;-57
2021/10/23 05:45:42;;;;;;;10.00;3.95;;;;;;;7.74;53.67;100322.91;1674249;84;21142;-57
2021/10/23 05:48:08;;;;;;;9.35;4.05;;;;;;;7.80;53.29;100324.25;1685265;83;21433;-58
2021/10/23 05:50:34;;;;;;;8.28;4.17;;;;;;;7.87;53.28;100332.06;1672339;83;21043;-58
2021/10/23 05:53:01;;;;;;;9.00;4.20;;;;;;;7.91;53.24;100337.45;1702287;83;21569;-57
2021/10/23 05:55:28;;;;;;;9.35;4.10;;;;;;;7.98;53.19;100337.41;1698664;82;21150;-56
2021/10/23 05:57:54;;;;;;;12.60;3.70;;;;;;;8.03;52.89;100339.68;1665711;84;22108;-57
2021/10/23 06:00:21;;;;;;;12.65;6.83;;;;;;;8.08;52.72;100338.05;1692591;82;21035;-56
2021/10/23 06:02:49;;;;;;;8.60;4.03;;;;;;;8.13;52.60;100339.88;1696964;82;21108;-56
2021/10/23 06:05:15;;;;;;;10.93;4.25;;;;;;;8.19;52.54;100348.63;1668877;83;21114;-56
2021/10/23 06:07:42;;;;;;;11.68;4.72;;;;;;;8.22;52.44;100349.73;1699653;82;20992;-57
2021/10/23 06:10:12;;;;;;;13.45;4.85;;;;;;;8.28;52.21;100345.82;1694231;82;22042;-56
2021/10/23 06:12:38;;;;;;;12.33;4.37;;;;;;;8.32;52.18;100345.95;1697729;83;21473;-56
2021/10/23 06:15:07;;;;;;;15.72;7.47;;;;;;;8.34;52.83;100339.67;1696509;83;21184;-57
2021/10/23 06:17:35;;;;;;;14.55;6.45;;;;;;;8.39;53.12;100336.73;1701005;83;21057;-56
2021/10/23 06:20:06;;;;;;;19.23;7.17;;;;;;;8.47;52.62;100347.54;1693787;83;21020;-56
2021/10/23 06:22:33;;;;;;;15.90;5.40;;;;;;;8.54;52.45;100349.25;1699252;82;21845;-56
2021/10/23 06:25:01;;;;;;;16.07;6.53;;;;;;;8.60;51.91;100344.84;1692751;82;21011;-55
2021/10/23 06:27:27;;;;;;;22.30;7.22;;;;;;;8.66;51.74;100346.21;1695133;82;21630;-56
2021/10/23 06:29:54;;;;;;;17.35;6.42;;;;;;;8.73;51.54;100357.92;1739449;80;21097;-56
2021/10/23 06:32:21;;;;;;;14.87;5.03;;;;;;;8.83;51.23;100365.48;1717946;80;21035;-56
2021/10/23 06:34:47;;;;;;;11.45;4.85;;;;;;;8.92;50.89;100354.30;1710460;82;21087;-57
2021/10/23 06:37:18;;;;;;;9.88;4.75;;;;;;;9.00;50.43;100351.61;1736292;80;21089;-57
2021/10/23 06:39:42;;;;;;;9.95;4.28;;;;;;;9.06;50.19;100362.48;1744734;80;21088;-57
2021/10/23 06:42:09;;;;;;;11.53;4.22;;;;;;;9.16;49.38;100368.35;1742670;80;21055;-57
2021/10/23 06:44:35;;;;;;;8.03;3.83;;;;;;;9.23;49.17;100370.88;1742172;80;21133;-57
2021/10/23 06:47:03;;;;;;;8.88;4.50;;;;;;;9.34;49.23;100370.91;1738808;80;21524;-57
2021/10/23 06:49:30;;;;;;;12.60;4.55;;;;;;;9.45;49.21;100367.50;1739998;80;21476;-56
2021/10/23 06:51:57;;;;;;;8.83;4.15;;;;;;;9.56;48.35;100360.93;1743286;80;21053;-58
2021/10/23 06:54:23;;;;;;;7.10;3.05;;;;;;;9.66;48.24;100359.76;1721561;81;21103;-58
2021/10/23 06:56:51;;;;;;;8.78;3.60;;;;;;;9.74;47.56;100371.01;1741663;80;21101;-58
2021/10/23 06:59:17;;;;;;;11.33;4.37;;;;;;;9.79;47.18;100365.75;1708488;82;21701;-57
2021/10/23 07:01:45;;;;;;;8.43;3.72;;;;;;;9.84;47.38;100363.59;1693267;82;21082;-57
2021/10/23 07:04:12;;;;;;;8.35;4.03;;;;;;;9.90;47.29;100360.99;1696930;82;21348;-58
2021/10/23 07:06:38;;;;;;;7.80;3.98;;;;;;;9.96;47.08;100368.87;1692069;82;21098;-58
2021/10/23 07:09:04;;;;;;;8.33;4.00;;;;;;;10.04;47.29;100373.05;1701790;82;21071;-58
2021/10/23 07:11:30;;;;;;;9.25;3.95;;;;;;;10.09;46.74;100380.10;1669937;84;21093;-58
2021/10/23 07:13:57;;;;;;;8.48;3.42;;;;;;;10.14;46.96;100385.02;1663019;82;21117;-58
2021/10/23 07:16:24;;;;;;;9.10;3.90;;;;;;;10.17;46.34;100368.97;1666065;84;21996;-57
2021/10/23 07:18:51;;;;;;;9.40;4.33;;;;;;;10.22;46.20;100385.22;1695619;83;21139;-58
2021/10/23 07:21:19;;;;;;;7.40;3.50;;;;;;;10.23;46.05;100379.02;1696122;82;21061;-58
2021/10/23 07:23:46;;;;;;;8.95;3.55;;;;;;;10.27;46.11;100393.61;1687575;82;21168;-58
2021/10/23 07:26:13;;;;;;;15.05;3.67;;;;;;;10.30;46.11;100383.31;1695206;83;21077;-58
2021/10/23 07:28:41;;;;;;;5.65;3.08;;;;;;;10.32;45.96;100390.17;1695338;82;21150;-58
2021/10/23 07:31:09;;;;;;;9.50;3.25;;;;;;;10.38;45.83;100387.03;1693271;82;21066;-58
2021/10/23 07:33:36;;;;;;;7.80;3.15;;;;;;;10.44;45.34;100388.36;1697291;82;21667;-58
2021/10/23 07:36:03;;;;;;;9.53;3.55;;;;;;;10.50;45.67;100401.50;1700502;83;21156;-56
2021/10/23 07:38:29;;;;;;;11.45;3.42;;;;;;;10.56;45.17;100395.76;1695140;82;21012;-56
2021/10/23 07:40:57;;;;;;;7.97;3.47;;;;;;;10.64;45.12;100396.44;1691787;83;21547;-57
2021/10/23 07:43:23;;;;;;;6.33;2.25;;;;;;;10.71;44.90;100384.00;1670156;82;21138;-58
2021/10/23 07:45:51;;;;;;;7.80;3.27;;;;;;;10.82;44.78;100391.02;1690751;82;21349;-58
2021/10/23 07:48:18;;;;;;;7.20;2.90;;;;;;;10.91;44.67;100388.97;1688216;82;21228;-58
2021/10/23 07:50:46;;;;;;;8.03;3.20;;;;;;;11.02;44.14;100405.68;1683870;82;21074;-59
2021/10/23 07:53:12;;;;;;;10.00;3.75;;;;;;;11.08;43.99;100393.34;1696963;82;21383;-58
2021/10/23 07:55:39;;;;;;;9.15;3.33;;;;;;;11.19;44.41;100406.44;1688863;82;21552;-57
2021/10/23 07:58:07;;;;;;;14.95;2.65;;;;;;;11.29;43.71;100396.81;1691861;82;21134;-58
2021/10/23 08:00:34;;;;;;;6.67;2.72;;;;;;;11.41;42.96;100412.08;1696249;82;22216;-58
2021/10/23 08:03:01;;;;;;;8.85;2.37;;;;;;;11.46;42.61;100428.34;1696000;82;21060;-58
2021/10/23 08:05:31;;;;;;;7.53;2.58;;;;;;;11.48;42.35;100409.77;1724381;80;22054;-58
2021/10/23 08:07:58;;;;;;;7.92;2.00;;;;;;;11.46;42.31;100418.30;1724283;80;21066;-58
2021/10/23 08:10:26;;;;;;;4.97;2.37;;;;;;;11.49;42.41;100430.73;1734721;80;21043;-61
2021/10/23 08:12:55;;;;;;;7.15;2.72;;;;;;;11.52;42.42;100428.33;1734442;80;21059;-59
2021/10/23 08:15:25;;;;;;;17.02;3.00;;;;;;;11.54;42.19;100429.03;1730074;80;21129;-58
2021/10/23 08:17:55;;;;;;;7.80;2.45;;;;;;;11.54;42.70;100419.81;1721290;80;22499;-58
2021/10/23 08:20:24;;;;;;;7.42;2.75;;;;;;;11.62;42.35;100429.23;1715637;80;21590;-59
2021/10/23 08:22:51;;;;;;;10.00;2.35;;;;;;;11.71;42.01;100421.03;1708686;82;21024;-59
2021/10/23 08:25:18;;;;;;;7.33;2.50;;;;;;;11.77;41.95;100432.84;1706269;82;21111;-58
2021/10/23 08:27:44;;;;;;;7.00;2.30;;;;;;;11.83;42.22;100434.48;1705820;81;21100;-58
2021/10/23 08:30:16;;;;;;;8.70;2.35;;;;;;;11.90;42.22;100427.75;1706510;81;21100;-58
2021/10/23 08:32:43;;;;;;;7.25;2.35;;;;;;;12.00;42.26;100430.94;1712299;82;21181;-58
2021/10/23 08:35:11;;;;;;;6.15;2.40;;;;;;;12.06;41.72;100435.20;1703792;82;21667;-57
2021/10/23 08:37:38;;;;;;;8.33;2.55;;;;;;;12.13;41.24;100442.11;1705542;82;21146;-58
2021/10/23 08:40:06;;;;;;;6.33;2.95;;;;;;;12.13;41.65;100443.42;1713814;82;21721;-57
2021/10/23 08:42:33;;;;;;;9.75;2.15;;;;;;;12.14;41.09;100441.61;1707003;82;21091;-58
2021/10/23 08:45:02;;;;;;;7.58;2.60;;;;;;;12.16;41.40;100438.39;1699333;82;21131;-58
2021/10/23 08:47:30;;;;;;;6.55;2.62;;;;;;;12.17;41.12;100443.99;1698319;82;22386;-59
2021/10/23 08:49:59;;;;;;;10.60;2.40;;;;;;;12.22;40.94;100458.48;1693849;82;21120;-58
2021/10/23 08:52:28;;;;;;;5.12;2.17;;;;;;;12.32;40.93;100438.70;1687732;82;21071;-58
2021/10/23 08:54:56;;;;;;;6.83;2.40;;;;;;;12.39;40.90;100441.66;1689131;82;21611;-58
2021/10/23 08:57:25;;;;;;;7.12;2.22;;;;;;;12.49;40.56;100450.47;1704491;82;21569;-57
2021/10/23 08:59:52;;;;;;;6.55;2.22;;;;;;;12.57;40.27;100451.10;1705095;82;22195;-58
2021/10/23 09:02:20;;;;;;;4.67;1.80;;;;;;;12.59;40.06;100436.81;1705142;82;21040;-59
2021/10/23 09:04:50;;;;;;;5.87;2.00;;;;;;;12.63;40.04;100455.36;1646771;85;21094;-56
2021/10/23 09:07:17;;;;;;;8.63;1.87;;;;;;;12.66;39.85;100446.81;1684754;83;20973;-57
2021/10/23 09:09:54;;;;;;;8.80;1.92;;;;;;;12.68;39.72;100449.69;1668551;83;20999;-57
2021/10/23 09:12:27;;;;;;;4.35;1.80;;;;;;;12.68;40.08;100439.12;1686872;83;21012;-58
2021/10/23 09:15:11;;;;;;;8.40;1.82;;;;;;;12.64;40.00;100454.87;1696960;82;21163;-59
2021/10/23 09:17:40;;;;;;;5.40;1.72;;;;;;;12.64;40.07;100444.30;1685218;83;21040;-58
2021/10/23 09:20:11;;;;;;;9.25;1.80;;;;;;;12.66;39.77;100466.16;1709739;81;22144;-59
2021/10/23 09:22:40;;;;;;;5.00;1.20;;;;;;;12.66;40.02;100445.03;1740725;80;21062;-59
2021/10/23 09:25:33;;;;;;;7.70;1.77;;;;;;;12.59;39.80;100462.35;1746596;80;21097;-56
2021/10/23 09:28:14;;;;;;;7.40;1.45;;;;;;;12.55;39.68;100469.70;1724873;81;21191;-59
2021/10/23 09:30:50;;;;;;;4.25;1.30;;;;;;;12.45;39.51;100497.38;1743965;80;21075;-57
2021/10/23 09:35:29;;;;;;;8.93;1.32;;;;;;;12.50;39.83;100474.55;1786071;78;22685;-59
2021/10/23 09:37:58;;;;;;;12.35;2.47;;;;;;;12.48;39.60;100482.27;1764213;78;21432;-59
2021/10/23 09:40:26;;;;;;;7.00;1.70;;;;;;;12.52;39.57;100475.25;1767957;78;21129;-59
2021/10/23 09:43:15;;;;;;;6.17;1.82;;;;;;;12.57;39.27;100482.28;1771162;78;20910;-58
2021/10/23 09:46:01;;;;;;;5.95;1.42;;;;;;;12.60;38.60;100462.22;1769282;79;21098;-56
2021/10/23 09:48:52;;;;;;;4.90;1.57;;;;;;;12.64;38.89;100481.27;1769726;78;20939;-56
2021/10/23 09:51:23;;;;;;;7.78;1.55;;;;;;;12.69;39.33;100486.16;1773461;79;21045;-55
2021/10/23 09:53:54;;;;;;;5.00;1.42;;;;;;;12.74;38.45;100504.59;1739822;80;21712;-58
2021/10/23 09:56:35;;;;;;;5.55;1.05;;;;;;;12.75;38.52;100475.89;1702951;81;21161;-58
2021/10/23 09:59:08;;;;;;;5.67;1.82;;;;;;;12.77;38.47;100482.36;1710359;81;21584;-57
2021/10/23 10:01:42;;;;;;;7.40;1.27;;;;;;;12.73;38.81;100471.23;1707937;81;21079;-55
2021/10/23 10:04:15;;;;;;;7.28;1.87;;;;;;;12.75;38.97;100469.29;1719496;81;21272;-57
2021/10/23 10:06:47;;;;;;;8.23;1.70;;;;;;;12.84;38.64;100476.88;1721350;81;21165;-57
2021/10/23 10:09:16;;;;;;;5.05;1.70;;;;;;;12.97;38.49;100472.67;1720903;81;20990;-57
2021/10/23 10:11:43;;;;;;;6.22;1.52;;;;;;;13.04;38.36;100471.16;1719676;81;21027;-57
2021/10/23 10:14:13;;;;;;;4.47;1.30;;;;;;;13.09;38.18;100501.13;1721304;81;21150;-56
2021/10/23 10:16:42;;;;;;;5.97;1.25;;;;;;;13.08;37.87;100491.06;1686083;81;21556;-57
2021/10/23 10:19:09;;;;;;;4.78;1.12;;;;;;;13.02;37.98;100490.27;1714076;81;21144;-57
2021/10/23 10:21:37;;;;;;;4.55;1.22;;;;;;;12.99;37.99;100495.82;1713164;81;21117;-57
2021/10/23 10:24:25;;;;;;;10.40;1.35;;;;;;;12.94;38.12;100496.72;1718033;81;22120;-57
2021/10/23 10:27:09;;;;;;;6.97;1.55;;;;;;;12.87;38.10;100496.91;1718000;81;21133;-57
2021/10/23 10:29:58;;;;;;;10.08;1.42;;;;;;;12.77;38.66;100500.34;1687394;81;21119;-58
2021/10/23 10:32:28;;;;;;;7.03;1.45;;;;;;;12.79;38.36;100497.11;1718969;81;21638;-58
2021/10/23 10:43:07;;;;;;;3.85;1.17;;;;;;;12.86;37.87;100504.02;1672184;82;22076;-58
2021/10/23 10:45:50;;;;;;;4.00;1.60;;;;;;;12.97;37.18;100501.73;1703737;81;21556;-58
2021/10/23 10:48:34;;;;;;;3.83;1.17;;;;;;;13.08;37.67;100495.02;1702066;82;22257;-58
2021/10/23 10:51:14;;;;;;;4.00;1.52;;;;;;;13.29;36.99;100502.00;1700597;81;21082;-59
2021/10/23 10:53:53;;;;;;;4.97;1.25;;;;;;;13.44;36.71;100511.22;1768898;79;21945;-58
2021/10/23 10:56:21;;;;;;;4.67;1.10;;;;;;;13.52;36.35;100502.61;1756485;79;21063;-59
2021/10/23 10:58:57;;;;;;;5.92;1.72;;;;;;;13.55;36.21;100516.38;1763520;79;21051;-59
2021/10/23 11:01:33;;;;;;;3.27;1.20;;;;;;;13.61;36.31;100518.11;1761933;79;21854;-58
2021/10/23 11:04:07;;;;;;;5.45;1.40;;;;;;;13.69;35.64;100515.61;1763395;79;21272;-59
2021/10/23 11:06:48;;;;;;;10.90;1.82;;;;;;;13.78;34.79;100514.75;1760745;79;20909;-58
2021/10/23 11:09:30;;;;;;;13.18;1.82;;;;;;;13.83;33.91;100519.63;1759905;79;21588;-58
2021/10/23 11:12:04;;;;;;;4.55;1.35;;;;;;;13.82;33.66;100517.48;1769281;79;21100;-57
2021/10/23 11:14:36;;;;;;;4.40;1.40;;;;;;;13.85;33.39;100554.23;1744418;79;21181;-59
2021/10/23 11:17:13;;;;;;;6.10;1.52;;;;;;;13.79;33.82;100520.41;1760802;79;20947;-61
2021/10/23 11:19:51;;;;;;;5.25;1.40;;;;;;;13.78;34.14;100520.55;1756840;79;21537;-59
2021/10/23 11:22:30;;;;;;;4.75;1.35;;;;;;;13.83;34.29;100524.42;1763782;79;20951;-58
2021/10/23 11:25:09;;;;;;;6.17;1.52;;;;;;;13.93;34.39;100530.53;1763701;79;20998;-58
2021/10/23 11:27:40;;;;;;;5.08;1.52;;;;;;;13.98;34.48;100535.91;1756470;79;21457;-58
2021/10/23 11:30:28;;;;;;;6.90;1.60;;;;;;;14.00;33.28;100524.69;1768699;79;21102;-58
2021/10/23 11:33:04;;;;;;;5.83;1.92;;;;;;;13.91;33.71;100536.46;1737634;79;21072;-58
2021/10/23 11:35:47;;;;;;;9.08;1.52;;;;;;;13.82;34.03;100543.93;1754757;79;21258;-58
2021/10/23 11:38:23;;;;;;;4.30;1.15;;;;;;;13.78;33.76;100527.98;1739700;79;22392;-58
2021/10/23 11:40:54;;;;;;;5.30;1.90;;;;;;;13.83;33.79;100552.69;1760281;80;21011;-60
2021/10/23 11:43:21;;;;;;;5.45;1.70;;;;;;;13.79;33.06;100536.77;1738764;79;21548;-59
2021/10/23 11:45:48;;;;;;;7.17;1.65;;;;;;;13.68;32.43;100546.48;1738858;80;20963;-59